createdAt,value
2019-01-25T00:03:14.975Z,54.63
2019-01-25T00:09:58.487Z,49.25
2019-01-25T00:16:19.511Z,57.33
2019-01-25T00:22:45.359Z,48.70
2019-01-25T00:29:09.199Z,45.40
2019-01-25T00:34:58.819Z,50.95
2019-01-25T00:41:24.403Z,48.80
2019-01-25T00:47:50.258Z,43.00
2019-01-25T00:54:16.922Z,46.40
2019-01-25T01:04:30.369Z,45.55
2019-01-25T01:10:58.005Z,48.85
2019-01-25T01:17:26.721Z,45.38
2019-01-25T01:23:52.883Z,45.12
2019-01-25T01:30:29.809Z,42.60
2019-01-25T01:36:18.262Z,46.37
2019-01-25T01:42:48.120Z,52.83
2019-01-25T01:49:12.929Z,50.58
2019-01-25T01:55:38.755Z,44.25
2019-01-25T02:05:43.741Z,45.43
2019-01-25T02:12:11.361Z,51.80
2019-01-25T02:18:38.413Z,52.33
2019-01-25T02:25:03.878Z,51.65
2019-01-25T02:31:30.047Z,66.15
2019-01-25T02:37:25.570Z,52.10
2019-01-25T02:43:51.390Z,52.25
2019-01-25T02:50:21.885Z,66.55
2019-01-25T02:56:50.100Z,46.63
2019-01-25T03:07:02.963Z,55.03
2019-01-25T03:13:42.122Z,60.50
2019-01-25T03:20:23.744Z,54.75
2019-01-25T03:27:06.806Z,47.53
2019-01-25T03:33:24.840Z,57.13
2019-01-25T03:39:18.331Z,48.78
2019-01-25T03:45:48.710Z,52.95
2019-01-25T03:52:24.800Z,51.30
2019-01-25T03:58:55.990Z,57.55
2019-01-25T04:09:16.943Z,65.50
2019-01-25T04:15:43.615Z,44.35
2019-01-25T04:22:08.643Z,56.88
2019-01-25T04:28:32.442Z,52.05
2019-01-25T04:35:05.259Z,71.00
2019-01-25T04:41:03.009Z,56.73
2019-01-25T04:47:36.913Z,56.25
2019-01-25T04:54:06.418Z,53.75
2019-01-25T05:00:38.409Z,59.85
2019-01-25T05:10:04.898Z,63.15
2019-01-25T05:16:32.807Z,55.40
2019-01-25T05:23:21.137Z,58.05
2019-01-25T05:30:07.107Z,63.30
2019-01-25T05:36:34.596Z,58.60
2019-01-25T05:43:02.481Z,54.73
2019-01-25T05:49:33.710Z,64.12
2019-01-25T05:56:11.655Z,51.50
2019-01-25T06:02:50.600Z,57.10
2019-01-25T06:12:27.065Z,51.30
2019-01-25T06:18:52.918Z,66.05
2019-01-25T06:25:19.960Z,61.55
2019-01-25T06:31:48.810Z,52.98
2019-01-25T06:38:02.276Z,55.95
2019-01-25T06:44:28.120Z,53.25
2019-01-25T06:50:59.195Z,60.50
2019-01-25T06:57:38.153Z,50.78
2019-01-25T07:04:05.216Z,56.83
2019-01-25T07:13:55.841Z,67.45
2019-01-25T07:20:21.428Z,55.00
2019-01-25T07:27:00.394Z,58.80
2019-01-25T07:33:37.291Z,51.33
2019-01-25T07:39:39.806Z,63.33
2019-01-25T07:46:24.899Z,51.53
2019-01-25T07:53:05.904Z,57.53
2019-01-25T07:59:35.980Z,49.40
2019-01-25T08:06:04.830Z,56.58
2019-01-25T08:16:20.964Z,54.30
2019-01-25T08:23:03.922Z,52.08
2019-01-25T08:29:42.877Z,62.45
2019-01-25T08:36:19.802Z,63.87
2019-01-25T08:42:56.749Z,55.90
2019-01-25T08:49:37.704Z,56.58
2019-01-25T08:56:19.272Z,65.20
2019-01-25T09:02:45.123Z,60.25
2019-01-25T09:09:14.247Z,57.27
2019-01-25T09:18:36.922Z,56.85
2019-01-25T09:25:18.462Z,51.35
2019-01-25T09:31:58.649Z,52.93
2019-01-25T09:38:45.807Z,52.30
2019-01-25T09:45:23.836Z,45.13
2019-01-25T09:51:49.649Z,41.23
2019-01-25T09:58:20.145Z,42.70
2019-01-25T10:04:49.274Z,42.73
2019-01-25T10:11:16.200Z,37.73
2019-01-25T10:20:54.711Z,39.05
2019-01-25T10:27:24.125Z,38.63
2019-01-25T10:33:49.603Z,33.93
2019-01-25T10:40:17.446Z,30.50
2019-01-25T10:46:54.394Z,25.30
2019-01-25T10:53:33.320Z,33.23
2019-01-25T10:59:59.182Z,31.40
2019-01-25T11:06:24.963Z,23.07
2019-01-25T11:12:51.411Z,25.47
2019-01-25T11:22:23.221Z,27.70
2019-01-25T11:29:02.180Z,26.87
2019-01-25T11:35:28.864Z,27.87
2019-01-25T11:41:57.070Z,27.47
2019-01-25T11:48:22.897Z,27.57
2019-01-25T11:54:59.818Z,26.20
2019-01-25T12:01:27.666Z,19.83
2019-01-25T12:07:58.178Z,17.60
2019-01-25T12:14:26.368Z,25.40
2019-01-25T12:24:40.453Z,28.97
2019-01-25T12:31:09.300Z,34.83
2019-01-25T12:37:38.151Z,28.67
2019-01-25T12:44:01.946Z,32.23
2019-01-25T12:50:53.774Z,29.00
2019-01-25T12:57:32.988Z,26.80
2019-01-25T13:04:00.638Z,30.93
2019-01-25T13:09:50.289Z,21.37
2019-01-25T13:16:15.876Z,22.97
2019-01-25T13:26:19.079Z,18.80
2019-01-25T13:32:56.010Z,20.60
2019-01-25T13:39:21.832Z,19.93
2019-01-25T13:45:52.345Z,14.60
2019-01-25T13:52:18.523Z,20.00
2019-01-25T13:58:44.339Z,19.97
2019-01-25T14:05:12.200Z,27.30
2019-01-25T14:11:01.638Z,27.43
2019-01-25T14:17:29.230Z,34.00
2019-01-25T14:27:43.227Z,29.20
2019-01-25T14:34:22.511Z,29.13
2019-01-25T14:41:11.330Z,75.93
2019-01-25T14:47:49.501Z,29.10
2019-01-25T14:54:31.356Z,33.80
2019-01-25T15:00:58.041Z,30.63
2019-01-25T15:07:47.425Z,34.00
2019-01-25T15:14:24.949Z,38.90
2019-01-25T15:20:58.192Z,30.27
2019-01-25T15:30:50.580Z,31.27
2019-01-25T15:37:31.020Z,31.40
2019-01-25T15:44:10.136Z,19.87
2019-01-25T15:50:48.926Z,28.67
2019-01-25T15:57:27.873Z,21.07
2019-01-25T16:04:17.027Z,20.90
2019-01-25T16:10:45.769Z,21.10
2019-01-25T16:17:11.593Z,21.53
2019-01-25T16:23:39.997Z,27.40
2019-01-25T16:33:18.178Z,23.83
2019-01-25T16:39:51.053Z,28.57
2019-01-25T16:46:16.878Z,21.57
2019-01-25T16:52:45.724Z,24.90
2019-01-25T16:59:17.604Z,23.40
2019-01-25T17:05:43.179Z,29.00
2019-01-25T17:12:12.710Z,25.50
2019-01-25T17:18:33.451Z,21.37
2019-01-25T17:24:56.841Z,25.60
2019-01-25T17:34:33.560Z,21.47
2019-01-25T17:41:22.603Z,28.50
2019-01-25T17:48:06.604Z,32.37
2019-01-25T17:54:39.488Z,29.30
2019-01-25T18:01:24.341Z,36.73
2019-01-25T18:08:02.071Z,25.70
2019-01-25T18:14:49.183Z,26.77
2019-01-25T18:21:26.405Z,38.10
2019-01-25T18:28:27.366Z,27.53
2019-01-25T18:38:08.329Z,38.33
2019-01-25T18:41:16.863Z,38.00
2019-01-25T18:47:23.831Z,36.33
2019-01-25T18:54:03.217Z,41.13
2019-01-25T19:00:31.630Z,30.47
2019-01-25T19:07:05.523Z,31.87
2019-01-25T19:10:36.623Z,37.57
2019-01-25T19:17:18.357Z,45.27
2019-01-25T19:23:57.307Z,35.73
2019-01-25T19:30:41.190Z,36.07
2019-01-25T19:37:23.423Z,32.67
2019-01-25T19:47:42.335Z,18.67
2019-01-25T19:54:06.454Z,25.17
2019-01-25T20:00:43.384Z,28.53
2019-01-25T20:07:22.336Z,27.67
2019-01-25T20:14:04.319Z,23.57
2019-01-25T20:20:44.012Z,18.97
2019-01-25T20:27:24.194Z,17.80
2019-01-25T20:33:52.071Z,20.47
2019-01-25T20:40:37.081Z,17.10
2019-01-25T20:46:55.672Z,11.73
2019-01-25T20:53:21.653Z,13.70
2019-01-25T21:00:08.351Z,15.20
2019-01-25T21:06:44.599Z,10.80
2019-01-25T21:13:25.361Z,15.50
2019-01-25T21:19:52.031Z,17.23
2019-01-25T21:26:18.214Z,12.37
2019-01-25T21:32:48.106Z,17.50
2019-01-25T21:39:15.917Z,17.67
2019-01-25T21:45:05.395Z,12.77
2019-01-25T21:51:30.971Z,13.90
2019-01-25T21:58:05.295Z,12.83
2019-01-25T22:04:29.913Z,14.80
2019-01-25T22:11:04.822Z,17.43
2019-01-25T22:17:47.813Z,12.47
2019-01-25T22:24:28.783Z,18.23
2019-01-25T22:31:12.788Z,7.73
2019-01-25T22:37:49.332Z,17.10
2019-01-25T22:44:39.776Z,17.50
2019-01-25T22:51:00.286Z,18.77
2019-01-25T22:57:41.294Z,24.23
2019-01-25T23:05:14.738Z,16.57
2019-01-25T23:11:40.822Z,13.43
2019-01-25T23:18:11.339Z,9.10
2019-01-25T23:24:37.191Z,13.47
2019-01-25T23:31:08.379Z,11.93
2019-01-25T23:37:39.951Z,11.20
2019-01-25T23:44:12.760Z,8.20
2019-01-25T23:50:27.858Z,9.00
2019-01-25T23:56:53.409Z,9.27
